sensor_id;sensor_type;location;lat;lon;timestamp;P1;durP1;ratioP1;P2;durP2;ratioP2
12232;SDS011;6179;51.748;8.728;2023-08-31T00:03:57;11.10;;;5.40;;
12232;SDS011;6179;51.748;8.728;2023-08-31T00:09:59;15.53;;;7.23;;
12232;SDS011;6179;51.748;8.728;2023-08-31T00:16:00;8.63;;;4.93;;
12232;SDS011;6179;51.748;8.728;2023-08-31T00:22:01;12.60;;;5.37;;
12232;SDS011;6179;51.748;8.728;2023-08-31T00:28:01;18.37;;;5.07;;
12232;SDS011;6179;51.748;8.728;2023-08-31T00:34:04;8.00;;;4.87;;
12232;SDS011;6179;51.748;8.728;2023-08-31T00:40:07;8.83;;;5.07;;
12232;SDS011;6179;51.748;8.728;2023-08-31T00:46:09;17.60;;;5.43;;
12232;SDS011;6179;51.748;8.728;2023-08-31T00:52:09;7.60;;;5.83;;
12232;SDS011;6179;51.748;8.728;2023-08-31T00:58:10;25.53;;;6.83;;
12232;SDS011;6179;51.748;8.728;2023-08-31T01:11:24;14.43;;;6.10;;
12232;SDS011;6179;51.748;8.728;2023-08-31T01:17:13;16.30;;;6.17;;
12232;SDS011;6179;51.748;8.728;2023-08-31T01:23:16;13.60;;;5.80;;
12232;SDS011;6179;51.748;8.728;2023-08-31T01:29:20;11.90;;;4.93;;
12232;SDS011;6179;51.748;8.728;2023-08-31T01:35:21;7.27;;;5.30;;
12232;SDS011;6179;51.748;8.728;2023-08-31T01:41:22;12.20;;;6.73;;
12232;SDS011;6179;51.748;8.728;2023-08-31T01:47:24;26.73;;;6.87;;
12232;SDS011;6179;51.748;8.728;2023-08-31T01:53:26;17.10;;;6.10;;
12232;SDS011;6179;51.748;8.728;2023-08-31T01:59:27;15.63;;;6.10;;
12232;SDS011;6179;51.748;8.728;2023-08-31T02:05:28;13.37;;;6.80;;
12232;SDS011;6179;51.748;8.728;2023-08-31T02:11:29;19.53;;;6.80;;
12232;SDS011;6179;51.748;8.728;2023-08-31T02:17:31;17.37;;;6.27;;
12232;SDS011;6179;51.748;8.728;2023-08-31T02:23:34;10.80;;;5.40;;
12232;SDS011;6179;51.748;8.728;2023-08-31T02:29:34;15.07;;;5.73;;
12232;SDS011;6179;51.748;8.728;2023-08-31T02:35:35;11.13;;;5.70;;
12232;SDS011;6179;51.748;8.728;2023-08-31T02:41:36;10.20;;;6.07;;
12232;SDS011;6179;51.748;8.728;2023-08-31T02:47:36;22.37;;;4.97;;
12232;SDS011;6179;51.748;8.728;2023-08-31T02:53:37;11.13;;;5.23;;
12232;SDS011;6179;51.748;8.728;2023-08-31T02:59:38;24.83;;;5.90;;
12232;SDS011;6179;51.748;8.728;2023-08-31T03:05:39;18.73;;;7.07;;
12232;SDS011;6179;51.748;8.728;2023-08-31T03:11:40;12.47;;;4.97;;
12232;SDS011;6179;51.748;8.728;2023-08-31T03:17:40;11.20;;;3.63;;
12232;SDS011;6179;51.748;8.728;2023-08-31T03:23:41;7.03;;;3.63;;
12232;SDS011;6179;51.748;8.728;2023-08-31T03:29:42;12.17;;;5.20;;
12232;SDS011;6179;51.748;8.728;2023-08-31T03:35:42;10.10;;;4.57;;
12232;SDS011;6179;51.748;8.728;2023-08-31T03:41:43;9.60;;;3.20;;
12232;SDS011;6179;51.748;8.728;2023-08-31T03:47:44;4.03;;;3.07;;
12232;SDS011;6179;51.748;8.728;2023-08-31T03:53:45;3.77;;;2.63;;
12232;SDS011;6179;51.748;8.728;2023-08-31T03:59:46;7.83;;;2.93;;
12232;SDS011;6179;51.748;8.728;2023-08-31T04:05:47;4.47;;;2.70;;
12232;SDS011;6179;51.748;8.728;2023-08-31T04:11:47;10.20;;;3.47;;
12232;SDS011;6179;51.748;8.728;2023-08-31T04:17:48;4.80;;;2.23;;
12232;SDS011;6179;51.748;8.728;2023-08-31T04:23:51;12.27;;;2.93;;
12232;SDS011;6179;51.748;8.728;2023-08-31T04:29:52;7.43;;;2.27;;
12232;SDS011;6179;51.748;8.728;2023-08-31T04:35:53;6.90;;;3.20;;
12232;SDS011;6179;51.748;8.728;2023-08-31T04:41:53;11.60;;;4.93;;
12232;SDS011;6179;51.748;8.728;2023-08-31T04:47:54;8.97;;;4.23;;
12232;SDS011;6179;51.748;8.728;2023-08-31T04:53:55;4.30;;;2.83;;
12232;SDS011;6179;51.748;8.728;2023-08-31T04:59:57;14.20;;;4.63;;
12232;SDS011;6179;51.748;8.728;2023-08-31T05:05:57;7.30;;;3.80;;
12232;SDS011;6179;51.748;8.728;2023-08-31T05:11:58;12.13;;;5.17;;
12232;SDS011;6179;51.748;8.728;2023-08-31T05:17:59;9.27;;;4.37;;
12232;SDS011;6179;51.748;8.728;2023-08-31T05:24:00;14.23;;;7.47;;
12232;SDS011;6179;51.748;8.728;2023-08-31T05:30:01;9.77;;;5.37;;
12232;SDS011;6179;51.748;8.728;2023-08-31T05:36:02;9.30;;;6.23;;
12232;SDS011;6179;51.748;8.728;2023-08-31T05:42:06;17.40;;;6.53;;
12232;SDS011;6179;51.748;8.728;2023-08-31T05:48:07;10.43;;;5.80;;
12232;SDS011;6179;51.748;8.728;2023-08-31T05:54:08;15.10;;;7.30;;
12232;SDS011;6179;51.748;8.728;2023-08-31T06:00:12;8.97;;;5.70;;
12232;SDS011;6179;51.748;8.728;2023-08-31T06:06:13;5.90;;;5.30;;
12232;SDS011;6179;51.748;8.728;2023-08-31T06:12:14;15.43;;;6.00;;
12232;SDS011;6179;51.748;8.728;2023-08-31T06:18:15;6.47;;;4.73;;
12232;SDS011;6179;51.748;8.728;2023-08-31T06:24:15;11.57;;;5.17;;
12232;SDS011;6179;51.748;8.728;2023-08-31T06:30:17;12.33;;;6.37;;
12232;SDS011;6179;51.748;8.728;2023-08-31T06:36:18;5.37;;;4.27;;
12232;SDS011;6179;51.748;8.728;2023-08-31T06:42:19;11.83;;;5.57;;
12232;SDS011;6179;51.748;8.728;2023-08-31T06:48:20;3.73;;;3.40;;
12232;SDS011;6179;51.748;8.728;2023-08-31T06:54:20;6.67;;;4.70;;
12232;SDS011;6179;51.748;8.728;2023-08-31T07:00:22;10.23;;;3.80;;
12232;SDS011;6179;51.748;8.728;2023-08-31T07:06:23;10.50;;;5.80;;
12232;SDS011;6179;51.748;8.728;2023-08-31T07:12:24;9.23;;;4.43;;
12232;SDS011;6179;51.748;8.728;2023-08-31T07:18:25;8.10;;;5.70;;
12232;SDS011;6179;51.748;8.728;2023-08-31T07:24:26;11.50;;;3.40;;
12232;SDS011;6179;51.748;8.728;2023-08-31T07:30:27;5.70;;;3.70;;
12232;SDS011;6179;51.748;8.728;2023-08-31T07:36:30;5.33;;;3.13;;
12232;SDS011;6179;51.748;8.728;2023-08-31T07:42:30;7.00;;;2.90;;
12232;SDS011;6179;51.748;8.728;2023-08-31T07:48:31;4.53;;;2.23;;
12232;SDS011;6179;51.748;8.728;2023-08-31T07:54:32;9.13;;;3.27;;
12232;SDS011;6179;51.748;8.728;2023-08-31T08:00:33;6.83;;;2.17;;
12232;SDS011;6179;51.748;8.728;2023-08-31T08:06:33;5.53;;;3.13;;
12232;SDS011;6179;51.748;8.728;2023-08-31T08:12:41;1.93;;;1.47;;
12232;SDS011;6179;51.748;8.728;2023-08-31T08:18:46;5.50;;;2.20;;
12232;SDS011;6179;51.748;8.728;2023-08-31T08:24:47;4.43;;;2.03;;
12232;SDS011;6179;51.748;8.728;2023-08-31T08:30:47;1.57;;;1.47;;
12232;SDS011;6179;51.748;8.728;2023-08-31T08:36:48;7.47;;;2.07;;
12232;SDS011;6179;51.748;8.728;2023-08-31T08:42:49;5.50;;;2.23;;
12232;SDS011;6179;51.748;8.728;2023-08-31T08:48:53;5.03;;;2.60;;
12232;SDS011;6179;51.748;8.728;2023-08-31T08:54:55;9.17;;;3.60;;
12232;SDS011;6179;51.748;8.728;2023-08-31T09:00:57;7.67;;;2.67;;
12232;SDS011;6179;51.748;8.728;2023-08-31T09:06:58;2.20;;;1.77;;
12232;SDS011;6179;51.748;8.728;2023-08-31T09:12:59;4.17;;;1.87;;
12232;SDS011;6179;51.748;8.728;2023-08-31T09:19:00;2.20;;;1.33;;
12232;SDS011;6179;51.748;8.728;2023-08-31T09:25:25;1.90;;;1.33;;
12232;SDS011;6179;51.748;8.728;2023-08-31T09:31:28;2.60;;;2.37;;
12232;SDS011;6179;51.748;8.728;2023-08-31T09:37:30;3.03;;;1.57;;
12232;SDS011;6179;51.748;8.728;2023-08-31T09:43:31;12.37;;;2.13;;
12232;SDS011;6179;51.748;8.728;2023-08-31T09:49:32;3.43;;;2.17;;
12232;SDS011;6179;51.748;8.728;2023-08-31T09:55:34;4.77;;;2.00;;
12232;SDS011;6179;51.748;8.728;2023-08-31T10:01:41;8.30;;;2.13;;
12232;SDS011;6179;51.748;8.728;2023-08-31T10:07:45;6.73;;;1.77;;
12232;SDS011;6179;51.748;8.728;2023-08-31T10:13:46;6.23;;;1.57;;
12232;SDS011;6179;51.748;8.728;2023-08-31T10:19:49;3.60;;;0.90;;
12232;SDS011;6179;51.748;8.728;2023-08-31T10:31:53;4.03;;;0.90;;
12232;SDS011;6179;51.748;8.728;2023-08-31T10:38:12;5.33;;;0.80;;
12232;SDS011;6179;51.748;8.728;2023-08-31T10:44:32;7.07;;;1.20;;
12232;SDS011;6179;51.748;8.728;2023-08-31T10:50:34;5.50;;;1.00;;
12232;SDS011;6179;51.748;8.728;2023-08-31T11:02:57;4.33;;;0.83;;
12232;SDS011;6179;51.748;8.728;2023-08-31T11:08:58;2.33;;;0.67;;
12232;SDS011;6179;51.748;8.728;2023-08-31T11:14:59;5.00;;;0.80;;
12232;SDS011;6179;51.748;8.728;2023-08-31T11:20:59;0.50;;;0.50;;
12232;SDS011;6179;51.748;8.728;2023-08-31T11:27:02;1.20;;;0.53;;
12232;SDS011;6179;51.748;8.728;2023-08-31T11:33:08;3.57;;;0.70;;
12232;SDS011;6179;51.748;8.728;2023-08-31T11:39:11;1.97;;;0.83;;
12232;SDS011;6179;51.748;8.728;2023-08-31T11:45:17;3.63;;;2.20;;
12232;SDS011;6179;51.748;8.728;2023-08-31T11:51:20;1.50;;;1.40;;
12232;SDS011;6179;51.748;8.728;2023-08-31T11:57:25;3.50;;;2.23;;
12232;SDS011;6179;51.748;8.728;2023-08-31T12:03:28;4.80;;;2.37;;
12232;SDS011;6179;51.748;8.728;2023-08-31T12:09:47;2.00;;;1.23;;
12232;SDS011;6179;51.748;8.728;2023-08-31T12:15:52;8.70;;;1.30;;
12232;SDS011;6179;51.748;8.728;2023-08-31T12:21:54;1.73;;;1.17;;
12232;SDS011;6179;51.748;8.728;2023-08-31T12:27:55;1.20;;;1.10;;
12232;SDS011;6179;51.748;8.728;2023-08-31T12:33:56;2.70;;;1.63;;
12232;SDS011;6179;51.748;8.728;2023-08-31T12:39:57;1.53;;;1.37;;
12232;SDS011;6179;51.748;8.728;2023-08-31T12:45:58;0.80;;;0.80;;
12232;SDS011;6179;51.748;8.728;2023-08-31T12:51:59;2.50;;;0.87;;
12232;SDS011;6179;51.748;8.728;2023-08-31T12:57:59;0.80;;;0.80;;
12232;SDS011;6179;51.748;8.728;2023-08-31T13:04:00;0.90;;;0.70;;
12232;SDS011;6179;51.748;8.728;2023-08-31T13:10:01;1.90;;;1.23;;
12232;SDS011;6179;51.748;8.728;2023-08-31T13:16:04;5.83;;;0.80;;
12232;SDS011;6179;51.748;8.728;2023-08-31T13:22:04;2.87;;;0.80;;
12232;SDS011;6179;51.748;8.728;2023-08-31T13:28:05;0.60;;;0.60;;
12232;SDS011;6179;51.748;8.728;2023-08-31T13:34:08;0.93;;;0.60;;
12232;SDS011;6179;51.748;8.728;2023-08-31T13:40:10;1.40;;;0.73;;
12232;SDS011;6179;51.748;8.728;2023-08-31T13:46:11;0.60;;;0.60;;
12232;SDS011;6179;51.748;8.728;2023-08-31T13:52:12;1.27;;;0.93;;
12232;SDS011;6179;51.748;8.728;2023-08-31T13:58:12;0.83;;;0.70;;
12232;SDS011;6179;51.748;8.728;2023-08-31T14:04:13;3.80;;;0.93;;
12232;SDS011;6179;51.748;8.728;2023-08-31T14:10:14;1.00;;;0.70;;
12232;SDS011;6179;51.748;8.728;2023-08-31T14:16:15;2.40;;;0.57;;
12232;SDS011;6179;51.748;8.728;2023-08-31T14:22:15;0.80;;;0.70;;
12232;SDS011;6179;51.748;8.728;2023-08-31T14:28:16;0.40;;;0.40;;
12232;SDS011;6179;51.748;8.728;2023-08-31T14:34:17;0.50;;;0.40;;
12232;SDS011;6179;51.748;8.728;2023-08-31T14:40:18;0.40;;;0.40;;
12232;SDS011;6179;51.748;8.728;2023-08-31T14:46:19;1.97;;;0.60;;
12232;SDS011;6179;51.748;8.728;2023-08-31T14:52:22;3.43;;;0.70;;
12232;SDS011;6179;51.748;8.728;2023-08-31T14:58:23;0.67;;;0.67;;
12232;SDS011;6179;51.748;8.728;2023-08-31T15:04:28;1.13;;;1.03;;
12232;SDS011;6179;51.748;8.728;2023-08-31T15:10:28;1.40;;;1.03;;
12232;SDS011;6179;51.748;8.728;2023-08-31T15:16:30;3.60;;;1.20;;
12232;SDS011;6179;51.748;8.728;2023-08-31T15:22:34;2.90;;;1.07;;
12232;SDS011;6179;51.748;8.728;2023-08-31T15:28:35;9.47;;;1.47;;
12232;SDS011;6179;51.748;8.728;2023-08-31T15:34:36;3.17;;;1.63;;
12232;SDS011;6179;51.748;8.728;2023-08-31T15:40:37;1.37;;;1.00;;
12232;SDS011;6179;51.748;8.728;2023-08-31T15:46:38;1.17;;;1.00;;
12232;SDS011;6179;51.748;8.728;2023-08-31T15:52:38;6.50;;;1.73;;
12232;SDS011;6179;51.748;8.728;2023-08-31T15:58:39;5.40;;;2.30;;
12232;SDS011;6179;51.748;8.728;2023-08-31T16:04:41;2.00;;;1.20;;
12232;SDS011;6179;51.748;8.728;2023-08-31T16:10:43;3.17;;;1.33;;
12232;SDS011;6179;51.748;8.728;2023-08-31T16:16:44;1.63;;;1.47;;
12232;SDS011;6179;51.748;8.728;2023-08-31T16:22:46;2.50;;;1.93;;
12232;SDS011;6179;51.748;8.728;2023-08-31T16:28:47;1.70;;;1.60;;
12232;SDS011;6179;51.748;8.728;2023-08-31T16:34:52;2.80;;;1.60;;
12232;SDS011;6179;51.748;8.728;2023-08-31T16:40:53;7.90;;;1.67;;
12232;SDS011;6179;51.748;8.728;2023-08-31T16:46:54;2.60;;;1.97;;
12232;SDS011;6179;51.748;8.728;2023-08-31T16:52:55;12.97;;;2.90;;
12232;SDS011;6179;51.748;8.728;2023-08-31T16:58:56;3.83;;;2.67;;
12232;SDS011;6179;51.748;8.728;2023-08-31T17:04:58;4.70;;;2.47;;
12232;SDS011;6179;51.748;8.728;2023-08-31T17:11:03;4.47;;;2.13;;
12232;SDS011;6179;51.748;8.728;2023-08-31T17:17:05;2.90;;;2.70;;
12232;SDS011;6179;51.748;8.728;2023-08-31T17:23:07;3.30;;;3.00;;
12232;SDS011;6179;51.748;8.728;2023-08-31T17:29:09;2.37;;;2.20;;
12232;SDS011;6179;51.748;8.728;2023-08-31T17:35:10;5.73;;;4.37;;
12232;SDS011;6179;51.748;8.728;2023-08-31T17:41:11;6.13;;;3.63;;
12232;SDS011;6179;51.748;8.728;2023-08-31T17:47:12;6.93;;;2.47;;
12232;SDS011;6179;51.748;8.728;2023-08-31T17:53:13;3.90;;;3.60;;
12232;SDS011;6179;51.748;8.728;2023-08-31T17:59:17;5.13;;;2.70;;
12232;SDS011;6179;51.748;8.728;2023-08-31T18:05:18;3.93;;;2.70;;
12232;SDS011;6179;51.748;8.728;2023-08-31T18:11:21;8.90;;;3.37;;
12232;SDS011;6179;51.748;8.728;2023-08-31T18:17:21;3.30;;;3.03;;
12232;SDS011;6179;51.748;8.728;2023-08-31T18:23:26;2.83;;;2.63;;
12232;SDS011;6179;51.748;8.728;2023-08-31T18:29:27;2.87;;;2.60;;
12232;SDS011;6179;51.748;8.728;2023-08-31T18:35:29;2.57;;;2.47;;
12232;SDS011;6179;51.748;8.728;2023-08-31T18:41:30;7.20;;;2.80;;
12232;SDS011;6179;51.748;8.728;2023-08-31T18:47:31;2.77;;;2.10;;
12232;SDS011;6179;51.748;8.728;2023-08-31T18:53:32;13.70;;;2.37;;
12232;SDS011;6179;51.748;8.728;2023-08-31T18:59:33;4.60;;;2.33;;
12232;SDS011;6179;51.748;8.728;2023-08-31T19:05:33;2.30;;;2.13;;
12232;SDS011;6179;51.748;8.728;2023-08-31T19:11:35;5.87;;;2.37;;
12232;SDS011;6179;51.748;8.728;2023-08-31T19:17:36;1.60;;;1.53;;
12232;SDS011;6179;51.748;8.728;2023-08-31T19:23:37;10.57;;;2.57;;
12232;SDS011;6179;51.748;8.728;2023-08-31T19:29:38;2.50;;;1.53;;
12232;SDS011;6179;51.748;8.728;2023-08-31T19:35:39;2.33;;;2.00;;
12232;SDS011;6179;51.748;8.728;2023-08-31T19:41:40;1.73;;;1.60;;
12232;SDS011;6179;51.748;8.728;2023-08-31T19:47:40;3.13;;;2.03;;
12232;SDS011;6179;51.748;8.728;2023-08-31T19:53:41;6.53;;;3.07;;
12232;SDS011;6179;51.748;8.728;2023-08-31T19:59:42;7.97;;;3.57;;
12232;SDS011;6179;51.748;8.728;2023-08-31T20:05:43;12.97;;;7.20;;
12232;SDS011;6179;51.748;8.728;2023-08-31T20:11:43;36.47;;;18.10;;
12232;SDS011;6179;51.748;8.728;2023-08-31T20:17:44;18.77;;;9.67;;
12232;SDS011;6179;51.748;8.728;2023-08-31T20:23:45;7.33;;;4.50;;
12232;SDS011;6179;51.748;8.728;2023-08-31T20:29:46;7.33;;;2.40;;
12232;SDS011;6179;51.748;8.728;2023-08-31T20:35:46;4.30;;;1.97;;
12232;SDS011;6179;51.748;8.728;2023-08-31T20:41:48;5.37;;;2.20;;
12232;SDS011;6179;51.748;8.728;2023-08-31T20:47:49;7.80;;;1.90;;
12232;SDS011;6179;51.748;8.728;2023-08-31T20:53:50;11.73;;;1.93;;
12232;SDS011;6179;51.748;8.728;2023-08-31T20:59:51;3.73;;;2.57;;
12232;SDS011;6179;51.748;8.728;2023-08-31T21:05:52;3.97;;;1.70;;
12232;SDS011;6179;51.748;8.728;2023-08-31T21:11:52;3.93;;;2.10;;
12232;SDS011;6179;51.748;8.728;2023-08-31T21:17:55;4.00;;;1.87;;
12232;SDS011;6179;51.748;8.728;2023-08-31T21:23:56;2.20;;;2.00;;
12232;SDS011;6179;51.748;8.728;2023-08-31T21:29:57;4.27;;;2.10;;
12232;SDS011;6179;51.748;8.728;2023-08-31T21:35:58;2.30;;;1.87;;
12232;SDS011;6179;51.748;8.728;2023-08-31T21:42:03;2.50;;;1.80;;
12232;SDS011;6179;51.748;8.728;2023-08-31T21:48:04;8.77;;;2.20;;
12232;SDS011;6179;51.748;8.728;2023-08-31T21:54:06;9.40;;;2.17;;
12232;SDS011;6179;51.748;8.728;2023-08-31T22:00:07;4.73;;;1.53;;
12232;SDS011;6179;51.748;8.728;2023-08-31T22:06:14;17.73;;;2.13;;
12232;SDS011;6179;51.748;8.728;2023-08-31T22:12:15;1.90;;;1.67;;
12232;SDS011;6179;51.748;8.728;2023-08-31T22:18:18;4.40;;;1.67;;
12232;SDS011;6179;51.748;8.728;2023-08-31T22:24:19;1.57;;;1.20;;
12232;SDS011;6179;51.748;8.728;2023-08-31T22:30:20;9.10;;;2.10;;
12232;SDS011;6179;51.748;8.728;2023-08-31T22:36:21;2.80;;;1.20;;
12232;SDS011;6179;51.748;8.728;2023-08-31T22:42:22;2.50;;;2.03;;
12232;SDS011;6179;51.748;8.728;2023-08-31T22:48:22;2.60;;;1.90;;
12232;SDS011;6179;51.748;8.728;2023-08-31T22:54:23;3.80;;;2.00;;
12232;SDS011;6179;51.748;8.728;2023-08-31T23:00:24;2.03;;;1.83;;
12232;SDS011;6179;51.748;8.728;2023-08-31T23:06:25;6.30;;;2.33;;
12232;SDS011;6179;51.748;8.728;2023-08-31T23:12:25;4.93;;;2.70;;
12232;SDS011;6179;51.748;8.728;2023-08-31T23:18:27;2.80;;;2.57;;
12232;SDS011;6179;51.748;8.728;2023-08-31T23:24:28;4.83;;;2.60;;
12232;SDS011;6179;51.748;8.728;2023-08-31T23:30:29;6.27;;;2.57;;
12232;SDS011;6179;51.748;8.728;2023-08-31T23:36:30;4.00;;;2.10;;
12232;SDS011;6179;51.748;8.728;2023-08-31T23:42:31;4.10;;;2.40;;
12232;SDS011;6179;51.748;8.728;2023-08-31T23:48:31;4.80;;;2.40;;
12232;SDS011;6179;51.748;8.728;2023-08-31T23:54:32;6.73;;;2.30;;
